sensor_id;sensor_type;location;lat;lon;timestamp;P1;durP1;ratioP1;P2;durP2;ratioP2
64682;SDS011;51107;47.652;19.016;2022-12-13T00:01:52;2.47;;;1.77;;
64682;SDS011;51107;47.652;19.016;2022-12-13T00:04:22;4.28;;;2.05;;
64682;SDS011;51107;47.652;19.016;2022-12-13T00:06:51;1.48;;;1.25;;
64682;SDS011;51107;47.652;19.016;2022-12-13T00:09:21;1.15;;;0.77;;
64682;SDS011;51107;47.652;19.016;2022-12-13T00:11:50;1.30;;;1.20;;
64682;SDS011;51107;47.652;19.016;2022-12-13T00:14:18;2.35;;;0.88;;
64682;SDS011;51107;47.652;19.016;2022-12-13T00:16:48;2.08;;;1.70;;
64682;SDS011;51107;47.652;19.016;2022-12-13T00:19:17;1.83;;;1.20;;
64682;SDS011;51107;47.652;19.016;2022-12-13T00:21:45;2.42;;;1.12;;
64682;SDS011;51107;47.652;19.016;2022-12-13T00:24:14;1.05;;;0.90;;
64682;SDS011;51107;47.652;19.016;2022-12-13T00:26:42;5.97;;;2.97;;
64682;SDS011;51107;47.652;19.016;2022-12-13T00:29:10;1.40;;;0.93;;
64682;SDS011;51107;47.652;19.016;2022-12-13T00:31:40;1.52;;;1.35;;
64682;SDS011;51107;47.652;19.016;2022-12-13T00:34:28;3.53;;;2.40;;
64682;SDS011;51107;47.652;19.016;2022-12-13T00:36:57;2.22;;;1.65;;
64682;SDS011;51107;47.652;19.016;2022-12-13T00:39:26;2.08;;;1.42;;
64682;SDS011;51107;47.652;19.016;2022-12-13T00:41:55;1.55;;;1.45;;
64682;SDS011;51107;47.652;19.016;2022-12-13T00:44:24;0.65;;;0.65;;
64682;SDS011;51107;47.652;19.016;2022-12-13T00:46:52;0.95;;;0.95;;
64682;SDS011;51107;47.652;19.016;2022-12-13T00:49:21;3.75;;;1.98;;
64682;SDS011;51107;47.652;19.016;2022-12-13T00:51:49;2.20;;;1.98;;
64682;SDS011;51107;47.652;19.016;2022-12-13T00:54:17;1.00;;;0.90;;
64682;SDS011;51107;47.652;19.016;2022-12-13T00:56:45;2.28;;;1.25;;
64682;SDS011;51107;47.652;19.016;2022-12-13T00:59:14;2.30;;;2.10;;
64682;SDS011;51107;47.652;19.016;2022-12-13T01:01:42;1.98;;;0.95;;
64682;SDS011;51107;47.652;19.016;2022-12-13T01:04:11;1.75;;;1.30;;
64682;SDS011;51107;47.652;19.016;2022-12-13T01:06:41;4.28;;;1.37;;
64682;SDS011;51107;47.652;19.016;2022-12-13T01:09:15;1.25;;;1.08;;
64682;SDS011;51107;47.652;19.016;2022-12-13T01:11:48;0.75;;;0.75;;
64682;SDS011;51107;47.652;19.016;2022-12-13T01:14:17;0.85;;;0.80;;
64682;SDS011;51107;47.652;19.016;2022-12-13T01:16:46;1.85;;;1.40;;
64682;SDS011;51107;47.652;19.016;2022-12-13T01:19:15;1.85;;;1.48;;
64682;SDS011;51107;47.652;19.016;2022-12-13T01:21:43;2.45;;;1.73;;
64682;SDS011;51107;47.652;19.016;2022-12-13T01:24:11;2.53;;;1.70;;
64682;SDS011;51107;47.652;19.016;2022-12-13T01:26:40;1.17;;;0.95;;
64682;SDS011;51107;47.652;19.016;2022-12-13T01:29:08;3.42;;;1.35;;
64682;SDS011;51107;47.652;19.016;2022-12-13T01:31:38;3.97;;;1.42;;
64682;SDS011;51107;47.652;19.016;2022-12-13T01:34:11;1.85;;;1.65;;
64682;SDS011;51107;47.652;19.016;2022-12-13T01:36:43;1.27;;;0.70;;
64682;SDS011;51107;47.652;19.016;2022-12-13T01:39:14;1.27;;;1.08;;
64682;SDS011;51107;47.652;19.016;2022-12-13T01:41:53;2.40;;;2.05;;
64682;SDS011;51107;47.652;19.016;2022-12-13T01:49:56;3.28;;;1.67;;
64682;SDS011;51107;47.652;19.016;2022-12-13T01:52:29;1.90;;;1.05;;
64682;SDS011;51107;47.652;19.016;2022-12-13T01:55:00;2.90;;;1.80;;
64682;SDS011;51107;47.652;19.016;2022-12-13T01:57:32;1.02;;;0.93;;
64682;SDS011;51107;47.652;19.016;2022-12-13T02:00:05;3.55;;;2.15;;
64682;SDS011;51107;47.652;19.016;2022-12-13T02:02:37;1.20;;;0.77;;
64682;SDS011;51107;47.652;19.016;2022-12-13T02:05:14;0.90;;;0.80;;
64682;SDS011;51107;47.652;19.016;2022-12-13T02:07:51;1.83;;;1.40;;
64682;SDS011;51107;47.652;19.016;2022-12-13T02:10:20;3.70;;;2.65;;
64682;SDS011;51107;47.652;19.016;2022-12-13T02:12:49;1.27;;;1.17;;
64682;SDS011;51107;47.652;19.016;2022-12-13T02:15:17;0.98;;;0.88;;
64682;SDS011;51107;47.652;19.016;2022-12-13T02:17:51;0.82;;;0.80;;
64682;SDS011;51107;47.652;19.016;2022-12-13T02:39:19;0.95;;;0.95;;
64682;SDS011;51107;47.652;19.016;2022-12-13T02:42:10;1.30;;;0.93;;
64682;SDS011;51107;47.652;19.016;2022-12-13T02:44:56;2.97;;;2.45;;
64682;SDS011;51107;47.652;19.016;2022-12-13T02:47:47;1.90;;;1.52;;
64682;SDS011;51107;47.652;19.016;2022-12-13T02:50:22;0.85;;;0.85;;
64682;SDS011;51107;47.652;19.016;2022-12-13T02:52:53;1.85;;;1.12;;
64682;SDS011;51107;47.652;19.016;2022-12-13T02:55:22;1.30;;;0.93;;
64682;SDS011;51107;47.652;19.016;2022-12-13T02:57:55;5.05;;;2.67;;
64682;SDS011;51107;47.652;19.016;2022-12-13T03:00:27;1.12;;;1.08;;
64682;SDS011;51107;47.652;19.016;2022-12-13T03:06:24;3.62;;;1.90;;
64682;SDS011;51107;47.652;19.016;2022-12-13T03:14:35;1.85;;;1.48;;
64682;SDS011;51107;47.652;19.016;2022-12-13T03:17:12;1.87;;;1.62;;
64682;SDS011;51107;47.652;19.016;2022-12-13T03:19:44;0.82;;;0.82;;
64682;SDS011;51107;47.652;19.016;2022-12-13T03:22:13;1.00;;;0.95;;
64682;SDS011;51107;47.652;19.016;2022-12-13T03:24:41;4.70;;;1.10;;
64682;SDS011;51107;47.652;19.016;2022-12-13T03:27:10;0.82;;;0.82;;
64682;SDS011;51107;47.652;19.016;2022-12-13T03:29:40;1.83;;;1.55;;
64682;SDS011;51107;47.652;19.016;2022-12-13T03:32:08;1.55;;;1.17;;
64682;SDS011;51107;47.652;19.016;2022-12-13T03:34:36;1.17;;;1.05;;
64682;SDS011;51107;47.652;19.016;2022-12-13T03:37:12;3.97;;;1.80;;
64682;SDS011;51107;47.652;19.016;2022-12-13T03:39:41;1.02;;;0.98;;
64682;SDS011;51107;47.652;19.016;2022-12-13T03:42:09;2.47;;;1.77;;
64682;SDS011;51107;47.652;19.016;2022-12-13T03:44:37;1.83;;;1.67;;
64682;SDS011;51107;47.652;19.016;2022-12-13T03:47:06;1.77;;;1.67;;
64682;SDS011;51107;47.652;19.016;2022-12-13T03:49:34;4.00;;;2.45;;
64682;SDS011;51107;47.652;19.016;2022-12-13T03:52:02;2.55;;;2.17;;
64682;SDS011;51107;47.652;19.016;2022-12-13T03:54:31;6.07;;;2.83;;
64682;SDS011;51107;47.652;19.016;2022-12-13T03:57:00;6.35;;;3.40;;
64682;SDS011;51107;47.652;19.016;2022-12-13T03:59:28;6.22;;;3.87;;
64682;SDS011;51107;47.652;19.016;2022-12-13T04:01:56;4.75;;;3.72;;
64682;SDS011;51107;47.652;19.016;2022-12-13T04:04:24;4.43;;;3.42;;
64682;SDS011;51107;47.652;19.016;2022-12-13T04:06:53;1.98;;;1.87;;
64682;SDS011;51107;47.652;19.016;2022-12-13T04:09:23;2.28;;;1.95;;
64682;SDS011;51107;47.652;19.016;2022-12-13T04:11:52;3.78;;;3.35;;
64682;SDS011;51107;47.652;19.016;2022-12-13T04:14:39;0.93;;;0.70;;
64682;SDS011;51107;47.652;19.016;2022-12-13T04:17:07;2.85;;;1.27;;
64682;SDS011;51107;47.652;19.016;2022-12-13T04:19:36;1.00;;;0.93;;
64682;SDS011;51107;47.652;19.016;2022-12-13T04:22:04;2.65;;;1.52;;
64682;SDS011;51107;47.652;19.016;2022-12-13T04:24:32;3.25;;;2.15;;
64682;SDS011;51107;47.652;19.016;2022-12-13T04:27:01;3.33;;;2.83;;
64682;SDS011;51107;47.652;19.016;2022-12-13T04:29:29;4.43;;;3.33;;
64682;SDS011;51107;47.652;19.016;2022-12-13T04:32:04;5.05;;;2.83;;
64682;SDS011;51107;47.652;19.016;2022-12-13T04:34:53;0.93;;;0.93;;
64682;SDS011;51107;47.652;19.016;2022-12-13T04:37:28;1.42;;;1.33;;
64682;SDS011;51107;47.652;19.016;2022-12-13T04:39:58;1.42;;;1.12;;
64682;SDS011;51107;47.652;19.016;2022-12-13T04:42:29;1.70;;;1.42;;
64682;SDS011;51107;47.652;19.016;2022-12-13T04:44:58;1.25;;;0.95;;
64682;SDS011;51107;47.652;19.016;2022-12-13T04:47:26;1.77;;;1.20;;
64682;SDS011;51107;47.652;19.016;2022-12-13T04:49:55;3.60;;;2.03;;
64682;SDS011;51107;47.652;19.016;2022-12-13T04:52:23;3.03;;;2.17;;
64682;SDS011;51107;47.652;19.016;2022-12-13T04:54:51;2.65;;;2.28;;
64682;SDS011;51107;47.652;19.016;2022-12-13T04:57:23;15.95;;;2.00;;
64682;SDS011;51107;47.652;19.016;2022-12-13T04:59:51;3.75;;;2.75;;
64682;SDS011;51107;47.652;19.016;2022-12-13T05:02:20;1.45;;;1.35;;
64682;SDS011;51107;47.652;19.016;2022-12-13T05:04:51;7.97;;;1.85;;
64682;SDS011;51107;47.652;19.016;2022-12-13T05:07:22;0.95;;;0.95;;
64682;SDS011;51107;47.652;19.016;2022-12-13T05:09:53;2.72;;;1.80;;
64682;SDS011;51107;47.652;19.016;2022-12-13T05:12:22;6.03;;;3.08;;
64682;SDS011;51107;47.652;19.016;2022-12-13T05:14:50;3.92;;;1.95;;
64682;SDS011;51107;47.652;19.016;2022-12-13T05:17:20;3.58;;;2.12;;
64682;SDS011;51107;47.652;19.016;2022-12-13T05:19:49;2.70;;;2.40;;
64682;SDS011;51107;47.652;19.016;2022-12-13T05:22:18;1.33;;;1.15;;
64682;SDS011;51107;47.652;19.016;2022-12-13T05:24:48;1.80;;;1.45;;
64682;SDS011;51107;47.652;19.016;2022-12-13T05:27:16;2.42;;;2.15;;
64682;SDS011;51107;47.652;19.016;2022-12-13T05:29:57;6.57;;;3.20;;
64682;SDS011;51107;47.652;19.016;2022-12-13T05:32:34;11.00;;;3.30;;
64682;SDS011;51107;47.652;19.016;2022-12-13T05:35:12;2.55;;;2.33;;
64682;SDS011;51107;47.652;19.016;2022-12-13T05:37:50;2.53;;;2.30;;
64682;SDS011;51107;47.652;19.016;2022-12-13T05:40:22;2.33;;;1.85;;
64682;SDS011;51107;47.652;19.016;2022-12-13T05:42:51;2.50;;;1.98;;
64682;SDS011;51107;47.652;19.016;2022-12-13T05:45:29;3.95;;;0.90;;
64682;SDS011;51107;47.652;19.016;2022-12-13T05:47:59;1.83;;;1.33;;
64682;SDS011;51107;47.652;19.016;2022-12-13T05:50:29;1.67;;;1.58;;
64682;SDS011;51107;47.652;19.016;2022-12-13T05:52:58;1.50;;;1.23;;
64682;SDS011;51107;47.652;19.016;2022-12-13T05:55:26;3.37;;;1.35;;
64682;SDS011;51107;47.652;19.016;2022-12-13T05:57:54;2.12;;;1.67;;
64682;SDS011;51107;47.652;19.016;2022-12-13T06:00:29;1.48;;;1.37;;
64682;SDS011;51107;47.652;19.016;2022-12-13T06:02:58;2.25;;;1.87;;
64682;SDS011;51107;47.652;19.016;2022-12-13T06:05:29;5.18;;;2.25;;
64682;SDS011;51107;47.652;19.016;2022-12-13T06:07:57;6.43;;;4.00;;
64682;SDS011;51107;47.652;19.016;2022-12-13T06:10:27;4.72;;;4.22;;
64682;SDS011;51107;47.652;19.016;2022-12-13T06:13:02;1.67;;;1.58;;
64682;SDS011;51107;47.652;19.016;2022-12-13T06:15:51;4.45;;;1.87;;
64682;SDS011;51107;47.652;19.016;2022-12-13T06:18:29;2.83;;;1.65;;
64682;SDS011;51107;47.652;19.016;2022-12-13T06:21:00;2.75;;;2.53;;
64682;SDS011;51107;47.652;19.016;2022-12-13T06:23:31;3.85;;;1.73;;
64682;SDS011;51107;47.652;19.016;2022-12-13T06:26:01;1.60;;;1.45;;
64682;SDS011;51107;47.652;19.016;2022-12-13T06:28:33;1.58;;;1.08;;
64682;SDS011;51107;47.652;19.016;2022-12-13T06:31:02;1.50;;;1.40;;
64682;SDS011;51107;47.652;19.016;2022-12-13T06:33:31;1.67;;;1.27;;
64682;SDS011;51107;47.652;19.016;2022-12-13T06:36:03;5.60;;;2.33;;
64682;SDS011;51107;47.652;19.016;2022-12-13T06:38:32;3.30;;;2.58;;
64682;SDS011;51107;47.652;19.016;2022-12-13T06:41:10;3.03;;;1.55;;
64682;SDS011;51107;47.652;19.016;2022-12-13T06:43:41;2.20;;;2.00;;
64682;SDS011;51107;47.652;19.016;2022-12-13T06:46:10;3.58;;;2.50;;
64682;SDS011;51107;47.652;19.016;2022-12-13T06:48:39;1.65;;;0.65;;
64682;SDS011;51107;47.652;19.016;2022-12-13T06:51:08;1.65;;;1.48;;
64682;SDS011;51107;47.652;19.016;2022-12-13T06:53:37;3.30;;;2.20;;
64682;SDS011;51107;47.652;19.016;2022-12-13T06:56:07;2.00;;;1.80;;
64682;SDS011;51107;47.652;19.016;2022-12-13T06:58:38;3.00;;;1.80;;
64682;SDS011;51107;47.652;19.016;2022-12-13T07:01:09;3.67;;;2.72;;
64682;SDS011;51107;47.652;19.016;2022-12-13T07:03:42;1.92;;;1.30;;
64682;SDS011;51107;47.652;19.016;2022-12-13T07:06:11;2.80;;;2.00;;
64682;SDS011;51107;47.652;19.016;2022-12-13T07:08:52;1.58;;;1.08;;
64682;SDS011;51107;47.652;19.016;2022-12-13T07:11:22;1.80;;;1.45;;
64682;SDS011;51107;47.652;19.016;2022-12-13T07:13:52;2.83;;;2.40;;
64682;SDS011;51107;47.652;19.016;2022-12-13T07:16:22;2.08;;;1.08;;
64682;SDS011;51107;47.652;19.016;2022-12-13T07:18:56;3.00;;;1.87;;
64682;SDS011;51107;47.652;19.016;2022-12-13T07:21:29;0.80;;;0.80;;
64682;SDS011;51107;47.652;19.016;2022-12-13T07:23:57;6.80;;;2.75;;
64682;SDS011;51107;47.652;19.016;2022-12-13T07:26:26;3.25;;;2.10;;
64682;SDS011;51107;47.652;19.016;2022-12-13T07:28:54;2.65;;;1.70;;
64682;SDS011;51107;47.652;19.016;2022-12-13T07:31:23;3.00;;;1.65;;
64682;SDS011;51107;47.652;19.016;2022-12-13T07:33:52;4.78;;;3.10;;
64682;SDS011;51107;47.652;19.016;2022-12-13T07:36:21;3.22;;;2.62;;
64682;SDS011;51107;47.652;19.016;2022-12-13T07:38:51;2.30;;;1.87;;
64682;SDS011;51107;47.652;19.016;2022-12-13T07:41:22;3.40;;;1.73;;
64682;SDS011;51107;47.652;19.016;2022-12-13T07:43:54;2.20;;;2.00;;
64682;SDS011;51107;47.652;19.016;2022-12-13T07:46:23;2.75;;;2.08;;
64682;SDS011;51107;47.652;19.016;2022-12-13T07:49:12;2.87;;;2.25;;
64682;SDS011;51107;47.652;19.016;2022-12-13T07:51:41;2.42;;;2.08;;
64682;SDS011;51107;47.652;19.016;2022-12-13T07:54:09;31.33;;;3.00;;
64682;SDS011;51107;47.652;19.016;2022-12-13T07:56:37;2.20;;;1.35;;
64682;SDS011;51107;47.652;19.016;2022-12-13T07:59:05;6.55;;;2.72;;
64682;SDS011;51107;47.652;19.016;2022-12-13T08:01:34;3.00;;;2.17;;
64682;SDS011;51107;47.652;19.016;2022-12-13T08:04:02;5.10;;;1.65;;
64682;SDS011;51107;47.652;19.016;2022-12-13T08:06:35;0.95;;;0.80;;
64682;SDS011;51107;47.652;19.016;2022-12-13T08:09:05;3.20;;;1.58;;
64682;SDS011;51107;47.652;19.016;2022-12-13T08:11:33;2.90;;;1.45;;
64682;SDS011;51107;47.652;19.016;2022-12-13T08:14:01;2.40;;;2.03;;
64682;SDS011;51107;47.652;19.016;2022-12-13T08:16:30;1.02;;;1.00;;
64682;SDS011;51107;47.652;19.016;2022-12-13T08:18:59;2.12;;;1.75;;
64682;SDS011;51107;47.652;19.016;2022-12-13T08:21:37;3.92;;;1.98;;
64682;SDS011;51107;47.652;19.016;2022-12-13T08:24:26;2.28;;;1.67;;
64682;SDS011;51107;47.652;19.016;2022-12-13T08:26:59;4.70;;;2.40;;
64682;SDS011;51107;47.652;19.016;2022-12-13T08:29:30;2.20;;;1.80;;
64682;SDS011;51107;47.652;19.016;2022-12-13T08:32:03;2.60;;;2.00;;
64682;SDS011;51107;47.652;19.016;2022-12-13T08:34:33;1.80;;;1.33;;
64682;SDS011;51107;47.652;19.016;2022-12-13T08:37:02;3.30;;;2.28;;
64682;SDS011;51107;47.652;19.016;2022-12-13T08:39:32;4.97;;;2.05;;
64682;SDS011;51107;47.652;19.016;2022-12-13T08:42:09;1.90;;;1.73;;
64682;SDS011;51107;47.652;19.016;2022-12-13T08:44:45;2.20;;;1.42;;
64682;SDS011;51107;47.652;19.016;2022-12-13T08:47:14;3.37;;;1.80;;
64682;SDS011;51107;47.652;19.016;2022-12-13T08:49:54;3.12;;;1.42;;
64682;SDS011;51107;47.652;19.016;2022-12-13T08:52:33;4.45;;;2.33;;
64682;SDS011;51107;47.652;19.016;2022-12-13T08:55:09;3.60;;;2.03;;
64682;SDS011;51107;47.652;19.016;2022-12-13T08:57:38;2.05;;;1.85;;
64682;SDS011;51107;47.652;19.016;2022-12-13T09:00:08;7.07;;;4.07;;
64682;SDS011;51107;47.652;19.016;2022-12-13T09:02:44;11.45;;;5.00;;
64682;SDS011;51107;47.652;19.016;2022-12-13T09:05:12;4.35;;;2.47;;
64682;SDS011;51107;47.652;19.016;2022-12-13T09:08:01;2.40;;;1.87;;
64682;SDS011;51107;47.652;19.016;2022-12-13T09:11:00;4.35;;;2.37;;
64682;SDS011;51107;47.652;19.016;2022-12-13T09:13:49;2.30;;;2.10;;
64682;SDS011;51107;47.652;19.016;2022-12-13T09:16:18;7.18;;;3.90;;
64682;SDS011;51107;47.652;19.016;2022-12-13T09:18:51;4.70;;;2.42;;
64682;SDS011;51107;47.652;19.016;2022-12-13T09:21:22;5.62;;;3.03;;
64682;SDS011;51107;47.652;19.016;2022-12-13T09:23:59;7.32;;;3.22;;
64682;SDS011;51107;47.652;19.016;2022-12-13T09:26:29;6.10;;;2.62;;
64682;SDS011;51107;47.652;19.016;2022-12-13T09:29:05;6.35;;;3.08;;
64682;SDS011;51107;47.652;19.016;2022-12-13T09:31:38;4.00;;;2.55;;
64682;SDS011;51107;47.652;19.016;2022-12-13T09:34:08;3.00;;;1.67;;
64682;SDS011;51107;47.652;19.016;2022-12-13T09:36:37;3.10;;;2.12;;
64682;SDS011;51107;47.652;19.016;2022-12-13T09:39:06;2.90;;;1.87;;
64682;SDS011;51107;47.652;19.016;2022-12-13T09:41:35;3.62;;;2.12;;
64682;SDS011;51107;47.652;19.016;2022-12-13T09:44:41;3.03;;;2.58;;
64682;SDS011;51107;47.652;19.016;2022-12-13T09:47:32;3.65;;;2.35;;
64682;SDS011;51107;47.652;19.016;2022-12-13T09:50:07;6.07;;;2.22;;
64682;SDS011;51107;47.652;19.016;2022-12-13T09:52:43;3.58;;;1.92;;
64682;SDS011;51107;47.652;19.016;2022-12-13T09:55:20;2.47;;;1.70;;
64682;SDS011;51107;47.652;19.016;2022-12-13T09:57:51;6.43;;;1.92;;
64682;SDS011;51107;47.652;19.016;2022-12-13T10:00:22;4.80;;;2.97;;
64682;SDS011;51107;47.652;19.016;2022-12-13T10:02:53;3.03;;;1.92;;
64682;SDS011;51107;47.652;19.016;2022-12-13T10:10:36;2.20;;;1.67;;
64682;SDS011;51107;47.652;19.016;2022-12-13T10:16:03;3.50;;;1.80;;
64682;SDS011;51107;47.652;19.016;2022-12-13T10:18:51;3.75;;;1.77;;
64682;SDS011;51107;47.652;19.016;2022-12-13T10:27:12;3.12;;;1.60;;
64682;SDS011;51107;47.652;19.016;2022-12-13T10:29:56;2.62;;;1.52;;
64682;SDS011;51107;47.652;19.016;2022-12-13T10:32:27;1.75;;;1.23;;
64682;SDS011;51107;47.652;19.016;2022-12-13T10:35:11;4.68;;;1.60;;
64682;SDS011;51107;47.652;19.016;2022-12-13T10:38:02;2.83;;;1.85;;
64682;SDS011;51107;47.652;19.016;2022-12-13T10:40:59;1.73;;;1.10;;
64682;SDS011;51107;47.652;19.016;2022-12-13T10:43:28;1.35;;;1.25;;
64682;SDS011;51107;47.652;19.016;2022-12-13T10:46:00;1.23;;;1.08;;
64682;SDS011;51107;47.652;19.016;2022-12-13T10:48:46;1.90;;;0.88;;
64682;SDS011;51107;47.652;19.016;2022-12-13T10:51:18;3.58;;;1.92;;
64682;SDS011;51107;47.652;19.016;2022-12-13T10:53:49;1.95;;;1.48;;
64682;SDS011;51107;47.652;19.016;2022-12-13T10:56:22;2.22;;;1.25;;
64682;SDS011;51107;47.652;19.016;2022-12-13T11:01:45;2.87;;;1.98;;
64682;SDS011;51107;47.652;19.016;2022-12-13T11:04:32;4.00;;;1.70;;
64682;SDS011;51107;47.652;19.016;2022-12-13T11:09:51;4.18;;;1.83;;
64682;SDS011;51107;47.652;19.016;2022-12-13T11:12:21;2.00;;;1.70;;
64682;SDS011;51107;47.652;19.016;2022-12-13T11:17:23;1.65;;;1.37;;
64682;SDS011;51107;47.652;19.016;2022-12-13T11:19:59;3.58;;;1.90;;
64682;SDS011;51107;47.652;19.016;2022-12-13T11:22:34;1.85;;;1.60;;
64682;SDS011;51107;47.652;19.016;2022-12-13T11:25:06;4.70;;;2.77;;
64682;SDS011;51107;47.652;19.016;2022-12-13T11:41:37;1.30;;;1.20;;
64682;SDS011;51107;47.652;19.016;2022-12-13T11:47:16;2.30;;;1.50;;
64682;SDS011;51107;47.652;19.016;2022-12-13T11:49:52;1.33;;;1.15;;
64682;SDS011;51107;47.652;19.016;2022-12-13T11:52:26;2.78;;;1.40;;
64682;SDS011;51107;47.652;19.016;2022-12-13T11:54:59;1.60;;;1.45;;
64682;SDS011;51107;47.652;19.016;2022-12-13T11:57:37;3.35;;;2.17;;
64682;SDS011;51107;47.652;19.016;2022-12-13T12:00:27;1.10;;;0.97;;
64682;SDS011;51107;47.652;19.016;2022-12-13T12:05:54;1.23;;;1.00;;
64682;SDS011;51107;47.652;19.016;2022-12-13T12:09:28;0.70;;;0.70;;
64682;SDS011;51107;47.652;19.016;2022-12-13T12:11:38;1.85;;;0.77;;
64682;SDS011;51107;47.652;19.016;2022-12-13T12:14:14;2.85;;;1.58;;
64682;SDS011;51107;47.652;19.016;2022-12-13T12:16:50;2.87;;;1.73;;
64682;SDS011;51107;47.652;19.016;2022-12-13T12:19:25;2.40;;;1.10;;
64682;SDS011;51107;47.652;19.016;2022-12-13T12:30:06;1.48;;;0.73;;
64682;SDS011;51107;47.652;19.016;2022-12-13T12:32:58;1.42;;;0.82;;
64682;SDS011;51107;47.652;19.016;2022-12-13T12:35:50;2.47;;;1.42;;
64682;SDS011;51107;47.652;19.016;2022-12-13T12:39:17;2.42;;;1.52;;
64682;SDS011;51107;47.652;19.016;2022-12-13T12:56:10;2.17;;;1.30;;
64682;SDS011;51107;47.652;19.016;2022-12-13T12:59:16;0.88;;;0.88;;
64682;SDS011;51107;47.652;19.016;2022-12-13T13:02:00;3.37;;;2.08;;
64682;SDS011;51107;47.652;19.016;2022-12-13T13:04:42;4.97;;;3.17;;
64682;SDS011;51107;47.652;19.016;2022-12-13T13:07:19;2.65;;;1.90;;
64682;SDS011;51107;47.652;19.016;2022-12-13T13:09:56;2.25;;;1.80;;
64682;SDS011;51107;47.652;19.016;2022-12-13T13:12:45;3.90;;;2.47;;
64682;SDS011;51107;47.652;19.016;2022-12-13T13:18:06;3.95;;;2.30;;
64682;SDS011;51107;47.652;19.016;2022-12-13T13:26:48;4.07;;;2.62;;
64682;SDS011;51107;47.652;19.016;2022-12-13T13:34:43;1.65;;;1.37;;
64682;SDS011;51107;47.652;19.016;2022-12-13T13:39:55;4.47;;;2.33;;
64682;SDS011;51107;47.652;19.016;2022-12-13T13:42:31;3.10;;;1.62;;
64682;SDS011;51107;47.652;19.016;2022-12-13T13:45:19;2.60;;;2.28;;
64682;SDS011;51107;47.652;19.016;2022-12-13T13:50:48;4.00;;;2.83;;
64682;SDS011;51107;47.652;19.016;2022-12-13T14:18:27;1.42;;;1.33;;
64682;SDS011;51107;47.652;19.016;2022-12-13T14:29:52;3.62;;;2.33;;
64682;SDS011;51107;47.652;19.016;2022-12-13T14:32:26;5.03;;;2.28;;
64682;SDS011;51107;47.652;19.016;2022-12-13T14:34:57;1.50;;;1.37;;
64682;SDS011;51107;47.652;19.016;2022-12-13T14:40:32;3.33;;;1.65;;
64682;SDS011;51107;47.652;19.016;2022-12-13T14:43:03;2.92;;;2.62;;
64682;SDS011;51107;47.652;19.016;2022-12-13T14:45:32;4.25;;;2.17;;
64682;SDS011;51107;47.652;19.016;2022-12-13T14:48:11;2.30;;;1.60;;
64682;SDS011;51107;47.652;19.016;2022-12-13T14:50:55;2.28;;;1.80;;
64682;SDS011;51107;47.652;19.016;2022-12-13T14:53:28;3.78;;;1.75;;
64682;SDS011;51107;47.652;19.016;2022-12-13T14:56:05;5.20;;;3.55;;
64682;SDS011;51107;47.652;19.016;2022-12-13T14:58:57;11.40;;;3.25;;
64682;SDS011;51107;47.652;19.016;2022-12-13T15:01:30;6.45;;;3.08;;
64682;SDS011;51107;47.652;19.016;2022-12-13T15:06:57;5.05;;;3.92;;
64682;SDS011;51107;47.652;19.016;2022-12-13T15:09:30;6.68;;;4.05;;
64682;SDS011;51107;47.652;19.016;2022-12-13T15:12:06;8.25;;;6.15;;
64682;SDS011;51107;47.652;19.016;2022-12-13T15:14:57;5.78;;;3.53;;
64682;SDS011;51107;47.652;19.016;2022-12-13T15:17:30;11.07;;;2.83;;
64682;SDS011;51107;47.652;19.016;2022-12-13T15:28:56;5.37;;;2.78;;
64682;SDS011;51107;47.652;19.016;2022-12-13T15:31:30;11.32;;;3.67;;
64682;SDS011;51107;47.652;19.016;2022-12-13T15:37:01;9.10;;;6.78;;
64682;SDS011;51107;47.652;19.016;2022-12-13T15:40:01;7.15;;;4.40;;
64682;SDS011;51107;47.652;19.016;2022-12-13T15:42:35;14.18;;;4.47;;
64682;SDS011;51107;47.652;19.016;2022-12-13T15:45:18;2.53;;;1.50;;
64682;SDS011;51107;47.652;19.016;2022-12-13T15:47:52;3.60;;;2.10;;
64682;SDS011;51107;47.652;19.016;2022-12-13T15:50:36;6.62;;;3.25;;
64682;SDS011;51107;47.652;19.016;2022-12-13T15:53:25;3.10;;;2.37;;
64682;SDS011;51107;47.652;19.016;2022-12-13T15:55:55;6.97;;;3.60;;
64682;SDS011;51107;47.652;19.016;2022-12-13T15:58:31;4.45;;;3.53;;
64682;SDS011;51107;47.652;19.016;2022-12-13T16:01:02;11.38;;;4.93;;
64682;SDS011;51107;47.652;19.016;2022-12-13T16:03:38;6.57;;;3.78;;
64682;SDS011;51107;47.652;19.016;2022-12-13T16:06:09;4.95;;;3.85;;
64682;SDS011;51107;47.652;19.016;2022-12-13T16:08:47;9.18;;;4.97;;
64682;SDS011;51107;47.652;19.016;2022-12-13T16:11:54;4.28;;;3.42;;
64682;SDS011;51107;47.652;19.016;2022-12-13T16:14:26;3.47;;;2.65;;
64682;SDS011;51107;47.652;19.016;2022-12-13T16:16:59;5.43;;;3.85;;
64682;SDS011;51107;47.652;19.016;2022-12-13T16:19:37;5.22;;;3.47;;
64682;SDS011;51107;47.652;19.016;2022-12-13T16:22:07;9.82;;;4.97;;
64682;SDS011;51107;47.652;19.016;2022-12-13T16:24:37;5.90;;;3.90;;
64682;SDS011;51107;47.652;19.016;2022-12-13T16:27:07;11.73;;;5.90;;
64682;SDS011;51107;47.652;19.016;2022-12-13T16:29:37;14.65;;;5.40;;
64682;SDS011;51107;47.652;19.016;2022-12-13T16:32:06;8.13;;;3.92;;
64682;SDS011;51107;47.652;19.016;2022-12-13T16:34:36;7.85;;;3.60;;
64682;SDS011;51107;47.652;19.016;2022-12-13T16:37:07;1.75;;;1.58;;
64682;SDS011;51107;47.652;19.016;2022-12-13T16:39:56;5.37;;;3.92;;
64682;SDS011;51107;47.652;19.016;2022-12-13T16:42:26;6.28;;;3.28;;
64682;SDS011;51107;47.652;19.016;2022-12-13T16:45:14;5.07;;;2.47;;
64682;SDS011;51107;47.652;19.016;2022-12-13T16:48:04;4.00;;;2.50;;
64682;SDS011;51107;47.652;19.016;2022-12-13T16:50:36;10.32;;;5.25;;
64682;SDS011;51107;47.652;19.016;2022-12-13T16:53:05;4.03;;;2.80;;
64682;SDS011;51107;47.652;19.016;2022-12-13T16:55:34;2.00;;;1.70;;
64682;SDS011;51107;47.652;19.016;2022-12-13T16:58:06;3.92;;;3.53;;
64682;SDS011;51107;47.652;19.016;2022-12-13T17:00:42;7.03;;;3.95;;
64682;SDS011;51107;47.652;19.016;2022-12-13T17:03:12;4.45;;;3.30;;
64682;SDS011;51107;47.652;19.016;2022-12-13T17:05:41;10.85;;;5.78;;
64682;SDS011;51107;47.652;19.016;2022-12-13T17:08:12;6.28;;;3.83;;
64682;SDS011;51107;47.652;19.016;2022-12-13T17:10:44;10.57;;;7.57;;
64682;SDS011;51107;47.652;19.016;2022-12-13T17:13:12;15.05;;;9.13;;
64682;SDS011;51107;47.652;19.016;2022-12-13T17:15:41;9.18;;;5.37;;
64682;SDS011;51107;47.652;19.016;2022-12-13T17:18:09;11.15;;;6.40;;
64682;SDS011;51107;47.652;19.016;2022-12-13T17:20:39;13.05;;;8.18;;
64682;SDS011;51107;47.652;19.016;2022-12-13T17:23:07;8.70;;;6.28;;
64682;SDS011;51107;47.652;19.016;2022-12-13T17:25:43;11.90;;;6.60;;
64682;SDS011;51107;47.652;19.016;2022-12-13T17:28:25;14.50;;;6.50;;
64682;SDS011;51107;47.652;19.016;2022-12-13T17:31:02;22.33;;;11.55;;
64682;SDS011;51107;47.652;19.016;2022-12-13T17:33:41;24.08;;;12.80;;
64682;SDS011;51107;47.652;19.016;2022-12-13T17:36:14;24.23;;;13.80;;
64682;SDS011;51107;47.652;19.016;2022-12-13T17:38:52;19.42;;;6.05;;
64682;SDS011;51107;47.652;19.016;2022-12-13T17:41:31;12.65;;;4.82;;
64682;SDS011;51107;47.652;19.016;2022-12-13T17:44:03;7.25;;;4.62;;
64682;SDS011;51107;47.652;19.016;2022-12-13T17:46:32;7.28;;;5.78;;
64682;SDS011;51107;47.652;19.016;2022-12-13T17:49:04;6.35;;;3.95;;
64682;SDS011;51107;47.652;19.016;2022-12-13T17:51:34;13.98;;;5.18;;
64682;SDS011;51107;47.652;19.016;2022-12-13T17:54:03;6.20;;;4.22;;
64682;SDS011;51107;47.652;19.016;2022-12-13T17:56:32;10.10;;;5.70;;
64682;SDS011;51107;47.652;19.016;2022-12-13T17:59:03;8.38;;;3.97;;
64682;SDS011;51107;47.652;19.016;2022-12-13T18:01:41;6.65;;;4.90;;